createdAt,value
2018-06-20T00:00:15.313Z,21.70
2018-06-20T00:05:11.626Z,21.70
2018-06-20T00:07:39.873Z,21.80
2018-06-20T00:10:08.119Z,21.70
2018-06-20T00:12:36.437Z,21.60
2018-06-20T00:15:04.746Z,21.70
2018-06-20T00:17:33.172Z,21.80
2018-06-20T00:20:01.448Z,21.80
2018-06-20T00:22:29.700Z,21.80
2018-06-20T00:24:58.013Z,21.70
2018-06-20T00:27:27.292Z,21.60
2018-06-20T00:29:55.578Z,21.40
2018-06-20T00:32:23.893Z,21.30
2018-06-20T00:34:52.164Z,21.20
2018-06-20T00:37:20.389Z,21.20
2018-06-20T00:39:48.684Z,21.20
2018-06-20T00:42:17.063Z,21.30
2018-06-20T00:44:45.472Z,21.20
2018-06-20T00:47:13.739Z,21.20
2018-06-20T00:49:42.044Z,21.10
2018-06-20T00:52:10.324Z,21.10
2018-06-20T00:54:38.564Z,21.10
2018-06-20T00:57:06.839Z,21.10
2018-06-20T00:59:35.119Z,21.30
2018-06-20T01:02:03.404Z,21.30
2018-06-20T01:04:31.651Z,21.30
2018-06-20T01:06:59.906Z,21.40
2018-06-20T01:09:28.361Z,21.50
2018-06-20T01:11:56.749Z,21.30
2018-06-20T01:14:24.907Z,21.30
2018-06-20T01:16:54.164Z,21.20
2018-06-20T01:19:22.433Z,21.30
2018-06-20T01:21:50.671Z,21.20
2018-06-20T01:24:18.990Z,21.20
2018-06-20T01:26:47.883Z,21.30
2018-06-20T01:29:16.158Z,21.30
2018-06-20T01:31:44.436Z,21.30
2018-06-20T01:34:12.692Z,21.30
2018-06-20T01:36:40.987Z,21.20
2018-06-20T01:39:10.474Z,21.10
2018-06-20T01:41:38.738Z,21.10
2018-06-20T01:44:07.344Z,21.10
2018-06-20T01:46:35.621Z,21.20
2018-06-20T01:49:04.003Z,21.20
2018-06-20T01:51:35.343Z,21.30
2018-06-20T01:54:03.639Z,21.30
2018-06-20T01:56:31.962Z,21.30
2018-06-20T02:01:28.228Z,21.20
2018-06-20T02:03:56.492Z,21.10
2018-06-20T02:08:59.613Z,21.10
2018-06-20T02:11:29.451Z,21.20
2018-06-20T02:13:57.727Z,21.20
2018-06-20T02:16:25.966Z,21.20
2018-06-20T02:18:55.349Z,21.20
2018-06-20T02:21:23.662Z,21.10
2018-06-20T02:23:51.933Z,21.10
2018-06-20T02:26:20.185Z,21.10
2018-06-20T02:28:48.528Z,21.10
2018-06-20T02:31:16.839Z,21.00
2018-06-20T02:36:32.018Z,21.00
2018-06-20T02:39:01.171Z,20.90
2018-06-20T02:41:29.468Z,20.80
2018-06-20T02:43:57.740Z,20.90
2018-06-20T02:46:25.995Z,21.00
2018-06-20T02:48:54.308Z,21.10
2018-06-20T02:51:22.622Z,20.90
2018-06-20T02:53:50.879Z,20.80
2018-06-20T02:56:19.181Z,20.60
2018-06-20T02:58:47.469Z,20.70
2018-06-20T03:01:15.772Z,20.80
2018-06-20T03:03:44.086Z,20.80
2018-06-20T03:06:12.380Z,21.00
2018-06-20T03:08:40.636Z,21.00
2018-06-20T03:11:08.935Z,21.00
2018-06-20T03:13:37.185Z,21.00
2018-06-20T03:16:05.540Z,21.00
2018-06-20T03:18:33.857Z,21.00
2018-06-20T03:21:02.111Z,21.00
2018-06-20T03:23:30.367Z,21.00
2018-06-20T03:25:58.697Z,21.00
2018-06-20T03:28:27.480Z,21.10
2018-06-20T03:30:56.307Z,21.20
2018-06-20T03:33:24.567Z,21.20
2018-06-20T03:35:52.864Z,21.20
2018-06-20T03:38:21.182Z,21.20
2018-06-20T03:43:17.492Z,21.20
2018-06-20T03:45:45.817Z,21.20
2018-06-20T03:48:14.608Z,21.10
2018-06-20T03:50:42.955Z,21.10
2018-06-20T03:53:11.225Z,21.00
2018-06-20T03:55:39.469Z,21.10
2018-06-20T03:58:07.708Z,21.00
2018-06-20T04:03:03.989Z,20.90
2018-06-20T04:05:32.299Z,20.90
2018-06-20T04:08:00.575Z,20.80
2018-06-20T04:12:57.742Z,20.80
2018-06-20T04:15:26.040Z,20.80
2018-06-20T04:20:22.255Z,20.80
2018-06-20T04:22:50.535Z,20.80
2018-06-20T04:25:19.645Z,20.90
2018-06-20T04:27:47.937Z,20.90
2018-06-20T04:30:16.202Z,21.00
2018-06-20T04:32:45.321Z,21.00
2018-06-20T04:35:13.674Z,20.90
2018-06-20T04:37:41.997Z,21.10
2018-06-20T04:40:10.264Z,21.20
2018-06-20T04:42:38.542Z,21.30
2018-06-20T04:45:06.796Z,21.30
2018-06-20T04:47:35.056Z,21.30
2018-06-20T04:52:31.416Z,21.50
2018-06-20T04:54:59.729Z,21.50
2018-06-20T04:57:28.007Z,21.40
2018-06-20T04:59:56.290Z,21.40
2018-06-20T05:02:24.572Z,21.40
2018-06-20T05:04:52.880Z,21.50
2018-06-20T05:07:21.198Z,21.50
2018-06-20T05:09:49.466Z,21.60
2018-06-20T05:12:17.726Z,21.60
2018-06-20T05:14:46.044Z,21.60
2018-06-20T05:17:14.369Z,21.60
2018-06-20T05:19:42.686Z,21.60
2018-06-20T05:22:11.000Z,21.70
2018-06-20T05:24:39.307Z,21.70
2018-06-20T05:29:35.598Z,22.10
2018-06-20T05:32:06.911Z,22.20
2018-06-20T05:34:35.207Z,22.20
2018-06-20T05:37:03.497Z,22.30
2018-06-20T05:39:31.770Z,22.40
2018-06-20T05:42:00.109Z,22.30
2018-06-20T05:46:56.427Z,22.60
2018-06-20T05:49:24.721Z,22.80
2018-06-20T05:51:52.964Z,22.80
2018-06-20T05:54:21.360Z,22.90
2018-06-20T05:56:49.611Z,23.10
2018-06-20T05:59:17.935Z,23.20
2018-06-20T06:01:46.192Z,23.30
2018-06-20T06:04:14.450Z,23.50
2018-06-20T06:06:43.340Z,23.50
2018-06-20T06:09:11.687Z,23.50
2018-06-20T06:11:39.995Z,23.50
2018-06-20T06:14:08.349Z,23.40
2018-06-20T06:16:36.680Z,23.50
2018-06-20T06:19:05.022Z,23.70
2018-06-20T06:21:38.023Z,23.80
2018-06-20T06:24:06.395Z,23.80
2018-06-20T06:26:35.013Z,23.90
2018-06-20T06:29:03.339Z,23.80
2018-06-20T06:31:31.632Z,24.00
2018-06-20T06:33:59.892Z,24.10
2018-06-20T06:36:28.194Z,24.20
2018-06-20T06:38:56.439Z,24.40
2018-06-20T06:41:24.761Z,24.60
2018-06-20T06:46:21.113Z,24.90
2018-06-20T06:51:17.392Z,25.20
2018-06-20T06:53:45.680Z,25.20
2018-06-20T06:56:13.973Z,25.10
2018-06-20T06:58:42.243Z,25.50
2018-06-20T07:01:10.544Z,25.50
2018-06-20T07:03:38.812Z,25.70
2018-06-20T07:06:07.078Z,26.10
2018-06-20T07:08:35.397Z,26.40
2018-06-20T07:13:31.695Z,27.30
2018-06-20T07:15:59.959Z,28.00
2018-06-20T07:18:28.951Z,28.00
2018-06-20T07:20:57.244Z,28.10
2018-06-20T07:23:25.607Z,28.60
2018-06-20T07:25:53.898Z,29.10
2018-06-20T07:28:22.138Z,29.20
2018-06-20T07:30:50.445Z,30.20
2018-06-20T07:33:18.725Z,30.70
2018-06-20T07:35:47.177Z,31.10
2018-06-20T07:38:15.424Z,31.20
2018-06-20T07:45:40.756Z,30.80
2018-06-20T07:48:09.160Z,30.20
2018-06-20T07:50:37.498Z,30.60
2018-06-20T07:53:05.804Z,30.70
2018-06-20T07:55:34.127Z,30.30
2018-06-20T07:58:02.446Z,29.80
2018-06-20T08:00:36.217Z,29.60
2018-06-20T08:05:53.047Z,28.90
2018-06-20T08:08:26.719Z,30.30
2018-06-20T08:11:00.318Z,30.20
2018-06-20T08:13:33.946Z,29.90
2018-06-20T08:16:07.540Z,31.50
2018-06-20T08:18:41.133Z,32.00
2018-06-20T08:21:09.453Z,33.60
2018-06-20T08:23:37.726Z,34.20
2018-06-20T08:26:06.045Z,32.10
2018-06-20T08:28:34.282Z,31.10
2018-06-20T08:31:02.625Z,32.50
2018-06-20T08:33:30.884Z,32.20
2018-06-20T08:35:59.130Z,32.40
2018-06-20T08:40:55.528Z,32.80
2018-06-20T08:43:23.848Z,31.90
2018-06-20T08:45:52.264Z,31.10
2018-06-20T08:48:20.569Z,30.40
2018-06-20T08:50:48.832Z,30.20
2018-06-20T08:53:17.138Z,31.20
2018-06-20T08:55:45.460Z,32.40
2018-06-20T08:58:13.784Z,33.70
2018-06-20T09:00:47.455Z,34.60
2018-06-20T09:03:15.743Z,34.80
2018-06-20T09:05:49.443Z,35.10
2018-06-20T09:08:23.141Z,35.50
2018-06-20T09:10:57.005Z,35.80
2018-06-20T09:16:04.163Z,36.40
2018-06-20T09:18:37.840Z,36.10
2018-06-20T09:21:06.260Z,36.40
2018-06-20T09:23:34.538Z,36.30
2018-06-20T09:26:02.848Z,37.80
2018-06-20T09:30:59.146Z,38.40
2018-06-20T09:33:27.467Z,35.90
2018-06-20T09:38:23.831Z,38.30
2018-06-20T09:40:52.100Z,38.50
2018-06-20T09:43:20.411Z,38.40
2018-06-20T09:45:48.699Z,37.80
2018-06-20T09:48:16.984Z,36.90
2018-06-20T09:50:50.597Z,36.20
2018-06-20T09:53:18.903Z,37.40
2018-06-20T09:58:16.333Z,35.60
2018-06-20T10:00:50.151Z,35.30
2018-06-20T10:03:23.683Z,36.60
2018-06-20T10:05:57.467Z,38.40
2018-06-20T10:08:31.243Z,38.70
2018-06-20T10:11:05.075Z,39.70
2018-06-20T10:13:40.594Z,40.60
2018-06-20T10:16:08.956Z,40.40
2018-06-20T10:18:37.248Z,41.90
2018-06-20T10:21:05.540Z,40.40
2018-06-20T10:23:33.874Z,39.60
2018-06-20T10:26:02.125Z,37.60
2018-06-20T10:28:30.425Z,38.30
2018-06-20T10:30:58.809Z,37.40
2018-06-20T10:33:27.142Z,39.00
2018-06-20T10:35:55.403Z,38.10
2018-06-20T10:38:23.693Z,36.80
2018-06-20T10:40:51.967Z,35.30
2018-06-20T10:43:20.251Z,33.70
2018-06-20T10:48:21.963Z,34.50
2018-06-20T10:50:50.278Z,37.30
2018-06-20T10:53:18.606Z,39.40
2018-06-20T10:55:47.317Z,38.60
2018-06-20T10:58:21.159Z,39.30
2018-06-20T11:00:54.967Z,39.80
2018-06-20T11:03:28.711Z,38.40
2018-06-20T11:06:02.388Z,38.10
2018-06-20T11:08:36.003Z,38.20
2018-06-20T11:11:09.522Z,36.00
2018-06-20T11:13:37.792Z,38.30
2018-06-20T11:16:06.181Z,39.60
2018-06-20T11:18:36.857Z,40.10
2018-06-20T11:21:05.175Z,39.00
2018-06-20T11:23:33.443Z,40.20
2018-06-20T11:26:01.735Z,40.40
2018-06-20T11:28:30.050Z,40.20
2018-06-20T11:30:58.345Z,41.00
2018-06-20T11:33:27.483Z,41.10
2018-06-20T11:35:55.768Z,42.10
2018-06-20T11:38:24.051Z,43.10
2018-06-20T11:40:52.391Z,43.00
2018-06-20T11:45:54.529Z,41.90
2018-06-20T11:48:22.853Z,41.60
2018-06-20T11:50:51.088Z,41.30
2018-06-20T11:53:19.362Z,42.40
2018-06-20T11:55:48.116Z,43.10
2018-06-20T11:58:21.825Z,39.90
2018-06-20T12:00:55.679Z,39.80
